createdAt,value
2018-12-30T00:00:42.689Z,99497.61
2018-12-30T00:05:48.676Z,99497.16
2018-12-30T00:10:53.210Z,99502.36
2018-12-30T00:16:24.344Z,99508.19
2018-12-30T00:21:41.697Z,99514.89
2018-12-30T00:26:53.782Z,99513.39
2018-12-30T00:32:08.444Z,99518.73
2018-12-30T00:37:19.872Z,99524.66
2018-12-30T00:42:29.225Z,99522.40
2018-12-30T00:47:46.993Z,99543.53
2018-12-30T00:52:47.242Z,99535.20
2018-12-30T00:57:51.565Z,99540.44
2018-12-30T01:02:55.892Z,99544.95
2018-12-30T01:08:00.700Z,99550.93
2018-12-30T01:13:04.927Z,99576.41
2018-12-30T01:18:09.598Z,99604.61
2018-12-30T01:23:14.104Z,99601.91
2018-12-30T01:28:18.370Z,99602.58
2018-12-30T01:33:23.603Z,99622.93
2018-12-30T01:38:27.933Z,99624.87
2018-12-30T01:43:32.188Z,99631.65
2018-12-30T01:48:36.834Z,99654.94
2018-12-30T01:53:41.196Z,99663.64
2018-12-30T01:58:45.540Z,99678.16
2018-12-30T02:03:52.071Z,99683.16
2018-12-30T02:08:56.770Z,99695.23
2018-12-30T02:14:01.819Z,99699.59
2018-12-30T02:19:06.356Z,99713.59
2018-12-30T02:24:11.028Z,99724.34
2018-12-30T02:29:15.817Z,99732.69
2018-12-30T02:34:22.174Z,99722.63
2018-12-30T02:39:27.024Z,99730.97
2018-12-30T02:44:31.601Z,99734.55
2018-12-30T02:49:35.828Z,99744.66
2018-12-30T02:54:40.269Z,99754.75
2018-12-30T02:59:44.585Z,99762.36
2018-12-30T03:04:49.239Z,99781.44
2018-12-30T03:09:54.000Z,99799.20
2018-12-30T03:14:58.246Z,99795.28
2018-12-30T03:20:03.514Z,99804.16
2018-12-30T03:25:07.757Z,99803.41
2018-12-30T03:30:12.000Z,99804.16
2018-12-30T03:35:16.254Z,99804.50
2018-12-30T03:40:21.026Z,99811.27
2018-12-30T03:45:25.305Z,99809.55
2018-12-30T03:50:29.604Z,99819.70
2018-12-30T03:55:34.032Z,99818.28
2018-12-30T04:00:38.258Z,99819.75
2018-12-30T04:05:42.553Z,99835.70
2018-12-30T04:10:46.778Z,99847.61
2018-12-30T04:15:51.055Z,99844.96
2018-12-30T04:20:55.355Z,99848.48
2018-12-30T04:25:59.586Z,99854.97
2018-12-30T04:31:03.824Z,99859.53
2018-12-30T04:36:08.238Z,99869.81
2018-12-30T04:41:12.546Z,99887.28
2018-12-30T04:46:16.899Z,99891.70
2018-12-30T04:51:21.261Z,99890.12
2018-12-30T04:56:25.608Z,99897.62
2018-12-30T05:01:30.366Z,99888.66
2018-12-30T05:06:34.648Z,99908.61
2018-12-30T05:11:38.879Z,99908.07
2018-12-30T05:16:43.214Z,99919.59
2018-12-30T05:21:47.438Z,99919.20
2018-12-30T05:26:51.780Z,99918.67
2018-12-30T05:31:56.022Z,99937.40
2018-12-30T05:37:00.308Z,99937.34
2018-12-30T05:42:04.485Z,99948.05
2018-12-30T05:47:12.363Z,99968.25
2018-12-30T05:52:16.626Z,99983.16
2018-12-30T05:57:20.885Z,99991.36
2018-12-30T06:02:25.292Z,99996.70
2018-12-30T06:07:29.639Z,100012.68
2018-12-30T06:12:34.057Z,100037.89
2018-12-30T06:17:38.294Z,100047.91
2018-12-30T06:22:49.342Z,100014.20
2018-12-30T06:27:48.609Z,99996.98
2018-12-30T06:32:52.837Z,99992.89
2018-12-30T06:37:57.069Z,100002.47
2018-12-30T06:43:01.304Z,100016.03
2018-12-30T06:48:05.727Z,100020.77
2018-12-30T06:53:09.964Z,100000.48
2018-12-30T06:58:14.326Z,99994.20
2018-12-30T07:03:18.556Z,100013.35
2018-12-30T07:08:22.794Z,100036.65
2018-12-30T07:13:27.107Z,100075.16
2018-12-30T07:18:31.347Z,100085.30
2018-12-30T07:23:35.593Z,100091.34
2018-12-30T07:28:39.820Z,100093.24
2018-12-30T07:33:44.218Z,100086.75
2018-12-30T07:38:48.737Z,100078.73
2018-12-30T07:43:53.063Z,100107.81
2018-12-30T07:48:57.320Z,100106.44
2018-12-30T07:54:02.021Z,100114.30
2018-12-30T07:59:06.397Z,100115.17
2018-12-30T08:04:10.639Z,100123.65
2018-12-30T08:09:14.874Z,100121.45
2018-12-30T08:14:19.279Z,100116.41
2018-12-30T08:19:23.533Z,100122.19
2018-12-30T08:24:27.766Z,100111.73
2018-12-30T08:29:32.106Z,100114.16
2018-12-30T08:34:36.527Z,100125.89
2018-12-30T08:39:40.862Z,100120.33
2018-12-30T08:44:45.815Z,100115.30
2018-12-30T08:49:50.221Z,100120.95
2018-12-30T08:54:54.497Z,100124.39
2018-12-30T08:59:58.856Z,100123.86
2018-12-30T09:05:03.253Z,100130.34
2018-12-30T09:10:08.364Z,100145.31
2018-12-30T09:15:12.650Z,100151.41
2018-12-30T09:20:17.035Z,100149.50
2018-12-30T09:25:21.472Z,100157.55
2018-12-30T09:30:25.748Z,100163.64
2018-12-30T09:35:30.081Z,100168.41
2018-12-30T09:40:34.420Z,100158.16
2018-12-30T09:45:38.745Z,100160.70
2018-12-30T09:50:43.281Z,100157.12
2018-12-30T09:55:47.518Z,100160.29
2018-12-30T10:00:51.871Z,100155.05
2018-12-30T10:05:56.179Z,100154.66
2018-12-30T10:11:00.431Z,100154.97
2018-12-30T10:16:05.301Z,100164.75
2018-12-30T10:21:09.542Z,100164.72
2018-12-30T10:26:14.531Z,100154.33
2018-12-30T10:31:18.954Z,100163.14
2018-12-30T10:36:23.295Z,100170.70
2018-12-30T10:41:27.681Z,100176.83
2018-12-30T10:46:31.991Z,100189.30
2018-12-30T10:51:36.298Z,100182.72
2018-12-30T10:56:40.645Z,100186.20
2018-12-30T11:01:45.697Z,100208.39
2018-12-30T11:06:50.126Z,100215.34
2018-12-30T11:11:54.468Z,100223.70
2018-12-30T11:16:58.702Z,100221.31
2018-12-30T11:22:03.132Z,100217.99
2018-12-30T11:27:07.534Z,100212.70
2018-12-30T11:32:11.801Z,100193.83
2018-12-30T11:37:16.134Z,100183.81
2018-12-30T11:42:20.558Z,100186.06
2018-12-30T11:47:24.897Z,100179.31
2018-12-30T11:52:31.041Z,100162.62
2018-12-30T11:57:35.411Z,100151.48
2018-12-30T12:02:42.061Z,100136.24
2018-12-30T12:07:46.330Z,100146.22
2018-12-30T12:12:51.277Z,100135.84
2018-12-30T12:18:16.182Z,100130.46
2018-12-30T12:23:20.543Z,100126.17
2018-12-30T12:28:25.241Z,100121.97
2018-12-30T12:33:30.162Z,100114.64
2018-12-30T12:38:34.454Z,100123.92
2018-12-30T12:43:38.794Z,100139.42
2018-12-30T12:48:43.115Z,100133.64
2018-12-30T12:53:47.550Z,100139.03
2018-12-30T12:58:51.894Z,100139.82
2018-12-30T13:03:56.422Z,100137.88
2018-12-30T13:09:00.772Z,100150.49
2018-12-30T13:14:05.088Z,100135.44
2018-12-30T13:19:09.527Z,100136.17
2018-12-30T13:24:14.031Z,100122.58
2018-12-30T13:29:18.270Z,100125.77
2018-12-30T13:34:22.547Z,100149.22
2018-12-30T13:39:26.811Z,100152.85
2018-12-30T13:44:31.054Z,100160.89
2018-12-30T13:49:35.498Z,100168.97
2018-12-30T13:54:47.410Z,100172.07
2018-12-30T13:59:45.725Z,100171.54
2018-12-30T14:04:50.642Z,100163.67
2018-12-30T14:16:03.865Z,100175.28
2018-12-30T14:21:27.166Z,100187.07
2018-12-30T14:26:31.555Z,100189.90
2018-12-30T14:31:35.894Z,100196.66
2018-12-30T14:36:59.202Z,100191.44
2018-12-30T14:42:03.497Z,100192.95
2018-12-30T14:47:07.751Z,100197.45
2018-12-30T14:52:31.049Z,100189.36
2018-12-30T15:08:06.503Z,100203.81
2018-12-30T15:13:29.779Z,100209.59
2018-12-30T15:18:53.162Z,100208.45
2018-12-30T15:23:57.402Z,100180.68
2018-12-30T15:29:01.663Z,100178.11
2018-12-30T15:34:05.912Z,100187.44
2018-12-30T15:39:10.153Z,100186.73
2018-12-30T15:44:33.563Z,100175.73
2018-12-30T16:00:18.242Z,100174.33
2018-12-30T16:21:12.134Z,100170.75
2018-12-30T16:31:47.668Z,100179.67
2018-12-30T16:37:11.434Z,100182.85
2018-12-30T16:42:15.683Z,100172.60
2018-12-30T16:47:41.948Z,100172.13
2018-12-30T17:03:47.317Z,100173.98
2018-12-30T17:08:54.440Z,100160.28
2018-12-30T17:14:10.818Z,100160.25
2018-12-30T17:24:26.814Z,100170.58
2018-12-30T17:29:50.127Z,100165.02
2018-12-30T17:34:54.449Z,100168.72
2018-12-30T17:40:17.851Z,100182.00
2018-12-30T17:45:22.969Z,100178.51
2018-12-30T18:01:43.761Z,100181.46
2018-12-30T18:07:07.083Z,100189.93
2018-12-30T18:12:30.400Z,100188.73
2018-12-30T18:23:05.203Z,100179.62
2018-12-30T18:34:21.504Z,100179.74
2018-12-30T18:39:47.432Z,100178.95
2018-12-30T18:44:51.823Z,100172.42
2018-12-30T18:50:15.584Z,100167.56
2018-12-30T18:55:39.239Z,100174.19
2018-12-30T19:00:43.516Z,100172.81
2018-12-30T19:16:45.374Z,100176.95
2018-12-30T19:21:49.764Z,100166.77
2018-12-30T19:26:54.154Z,100160.36
2018-12-30T19:32:17.454Z,100161.80
2018-12-30T19:37:21.738Z,100164.89
2018-12-30T19:48:14.360Z,100178.52
2018-12-30T19:58:29.647Z,100170.27
2018-12-30T20:03:52.960Z,100165.30
2018-12-30T20:08:57.219Z,100165.90
2018-12-30T20:14:01.899Z,100146.38
2018-12-30T20:24:29.455Z,100139.92
2018-12-30T20:29:46.380Z,100144.38
2018-12-30T20:34:50.882Z,100136.31
2018-12-30T20:45:43.013Z,100130.09
2018-12-30T20:50:49.328Z,100117.91
2018-12-30T20:55:53.930Z,100127.97
2018-12-30T21:01:17.267Z,100131.09
2018-12-30T21:06:21.527Z,100123.08
2018-12-30T21:11:26.256Z,100129.17
2018-12-30T21:16:30.821Z,100140.28
2018-12-30T21:21:54.467Z,100132.87
2018-12-30T21:27:11.279Z,100115.09
2018-12-30T21:32:30.481Z,100120.61
2018-12-30T21:37:35.091Z,100125.05
2018-12-30T21:42:43.850Z,100121.61
2018-12-30T21:48:05.872Z,100119.36
2018-12-30T21:53:10.268Z,100107.86
2018-12-30T22:08:57.901Z,100103.01
2018-12-30T22:14:21.292Z,100104.41
2018-12-30T22:24:36.287Z,100111.30
2018-12-30T22:29:52.442Z,100109.93
2018-12-30T22:34:56.740Z,100113.95
2018-12-30T22:40:20.456Z,100112.23
2018-12-30T22:50:34.733Z,100109.50
2018-12-30T22:55:39.281Z,100103.72
2018-12-30T23:01:02.806Z,100095.47
2018-12-30T23:06:26.176Z,100096.75
2018-12-30T23:16:59.837Z,100095.78
2018-12-30T23:22:23.429Z,100087.48
2018-12-30T23:33:08.887Z,100093.97
2018-12-30T23:38:32.756Z,100092.66
2018-12-30T23:54:15.445Z,100097.81
2018-12-30T23:59:19.701Z,100105.75
